createdAt,value
2024-01-20T00:01:20.307Z,32.88
2024-01-20T00:04:22.281Z,37.05
2024-01-20T00:07:24.271Z,33.97
2024-01-20T00:10:25.991Z,33.80
2024-01-20T00:13:27.669Z,36.25
2024-01-20T00:16:29.397Z,36.50
2024-01-20T00:19:31.283Z,31.13
2024-01-20T00:22:33.248Z,30.70
2024-01-20T00:25:35.250Z,32.15
2024-01-20T00:28:37.335Z,30.92
2024-01-20T00:31:39.307Z,31.00
2024-01-20T00:34:51.571Z,32.88
2024-01-20T00:38:02.136Z,30.95
2024-01-20T00:41:04.056Z,31.08
2024-01-20T00:44:06.055Z,30.33
2024-01-20T00:47:08.093Z,32.35
2024-01-20T00:50:10.270Z,30.17
2024-01-20T00:53:11.989Z,29.77
2024-01-20T00:56:13.771Z,27.42
2024-01-20T00:59:15.573Z,32.22
2024-01-20T01:02:19.867Z,28.77
2024-01-20T01:05:21.773Z,27.25
2024-01-20T01:08:23.442Z,27.05
2024-01-20T01:11:25.193Z,25.30
2024-01-20T01:14:26.943Z,28.02
2024-01-20T01:17:28.826Z,27.67
2024-01-20T01:20:30.558Z,26.13
2024-01-20T01:23:32.527Z,24.40
2024-01-20T01:26:34.382Z,25.92
2024-01-20T01:29:36.312Z,24.50
2024-01-20T01:32:38.457Z,23.17
2024-01-20T01:35:40.202Z,22.67
2024-01-20T01:38:41.868Z,23.40
2024-01-20T01:41:45.167Z,27.92
2024-01-20T01:44:46.870Z,22.70
2024-01-20T01:47:49.412Z,20.00
2024-01-20T01:50:54.733Z,20.52
2024-01-20T01:53:58.867Z,21.48
2024-01-20T01:57:01.561Z,23.40
2024-01-20T02:00:05.487Z,23.40
2024-01-20T02:03:09.294Z,21.88
2024-01-20T02:06:11.273Z,20.08
2024-01-20T02:09:14.330Z,22.63
2024-01-20T02:12:16.613Z,23.17
2024-01-20T02:15:19.082Z,23.27
2024-01-20T02:18:23.927Z,21.02
2024-01-20T02:21:25.809Z,17.95
2024-01-20T02:24:27.622Z,18.83
2024-01-20T02:27:29.434Z,19.52
2024-01-20T02:30:31.280Z,22.80
2024-01-20T02:33:33.140Z,20.05
2024-01-20T02:36:34.949Z,22.25
2024-01-20T02:39:36.669Z,22.58
2024-01-20T02:42:38.433Z,23.45
2024-01-20T02:45:40.150Z,20.98
2024-01-20T02:48:42.293Z,18.55
2024-01-20T02:51:44.015Z,22.38
2024-01-20T02:54:45.720Z,21.02
2024-01-20T02:57:47.503Z,20.95
2024-01-20T03:00:49.211Z,17.60
2024-01-20T03:03:50.956Z,18.65
2024-01-20T03:06:52.675Z,19.60
2024-01-20T03:09:54.441Z,23.75
2024-01-20T03:12:56.999Z,21.33
2024-01-20T03:15:58.804Z,20.70
2024-01-20T03:19:00.643Z,18.15
2024-01-20T03:22:02.443Z,21.60
2024-01-20T03:25:04.309Z,19.30
2024-01-20T03:28:06.171Z,20.92
2024-01-20T03:31:07.890Z,20.40
2024-01-20T03:34:10.538Z,18.33
2024-01-20T03:37:12.352Z,18.92
2024-01-20T03:40:14.228Z,18.67
2024-01-20T03:43:15.909Z,21.05
2024-01-20T03:46:19.476Z,19.90
2024-01-20T03:49:21.525Z,23.52
2024-01-20T03:52:23.389Z,20.25
2024-01-20T03:55:25.077Z,21.00
2024-01-20T03:58:26.857Z,20.25
2024-01-20T04:01:28.615Z,25.00
2024-01-20T04:04:30.393Z,22.63
2024-01-20T04:07:32.169Z,21.25
2024-01-20T04:10:33.901Z,24.00
2024-01-20T04:13:35.618Z,22.48
2024-01-20T04:16:37.767Z,21.20
2024-01-20T04:19:39.684Z,19.65
2024-01-20T04:22:41.420Z,21.38
2024-01-20T04:25:43.198Z,20.05
2024-01-20T04:28:45.411Z,20.95
2024-01-20T04:31:47.187Z,21.48
2024-01-20T04:34:48.935Z,20.30
2024-01-20T04:37:50.642Z,20.50
2024-01-20T04:40:52.456Z,20.25
2024-01-20T04:43:54.128Z,20.70
2024-01-20T04:46:55.817Z,21.20
2024-01-20T04:49:57.532Z,19.27
2024-01-20T04:52:59.238Z,23.63
2024-01-20T04:56:04.661Z,23.63
2024-01-20T04:59:06.328Z,21.67
2024-01-20T05:02:08.070Z,22.17
2024-01-20T05:05:10.130Z,20.55
2024-01-20T05:08:11.863Z,18.67
2024-01-20T05:11:13.720Z,20.60
2024-01-20T05:14:15.513Z,22.17
2024-01-20T05:17:17.213Z,22.17
2024-01-20T05:20:18.979Z,19.98
2024-01-20T05:23:20.724Z,21.10
2024-01-20T05:26:22.538Z,22.08
2024-01-20T05:29:24.522Z,22.00
2024-01-20T05:32:26.676Z,18.63
2024-01-20T05:35:28.409Z,20.63
2024-01-20T05:38:30.093Z,19.17
2024-01-20T05:41:31.836Z,17.73
2024-01-20T05:44:33.619Z,21.98
2024-01-20T05:47:35.417Z,19.63
2024-01-20T05:50:37.176Z,22.88
2024-01-20T05:53:38.988Z,23.60
2024-01-20T05:56:40.653Z,19.55
2024-01-20T05:59:42.354Z,21.77
2024-01-20T06:02:44.178Z,20.25
2024-01-20T06:05:45.881Z,21.88
2024-01-20T06:08:47.586Z,22.30
2024-01-20T06:11:49.923Z,19.15
2024-01-20T06:14:51.627Z,20.35
2024-01-20T06:17:53.417Z,20.17
2024-01-20T06:20:55.536Z,19.95
2024-01-20T06:23:57.323Z,18.88
2024-01-20T06:26:59.064Z,19.00
2024-01-20T06:30:01.093Z,21.30
2024-01-20T06:33:04.012Z,19.90
2024-01-20T06:36:06.309Z,23.20
2024-01-20T06:39:08.194Z,21.65
2024-01-20T06:42:11.599Z,21.10
2024-01-20T06:45:13.408Z,20.45
2024-01-20T06:48:15.301Z,20.48
2024-01-20T06:51:17.343Z,20.23
2024-01-20T06:54:19.237Z,19.23
2024-01-20T06:57:21.003Z,19.20
2024-01-20T07:00:22.867Z,21.40
2024-01-20T07:03:24.740Z,18.27
2024-01-20T07:06:26.569Z,21.70
2024-01-20T07:09:28.426Z,19.67
2024-01-20T07:12:31.020Z,20.08
2024-01-20T07:15:33.018Z,18.02
2024-01-20T07:18:34.756Z,19.60
2024-01-20T07:21:36.544Z,18.38
2024-01-20T07:24:38.522Z,19.73
2024-01-20T07:27:40.278Z,17.67
2024-01-20T07:30:42.039Z,20.60
2024-01-20T07:33:43.885Z,22.98
2024-01-20T07:36:46.103Z,20.88
2024-01-20T07:39:48.216Z,16.55
2024-01-20T07:42:50.045Z,20.75
2024-01-20T07:45:55.225Z,17.08
2024-01-20T07:48:57.056Z,18.55
2024-01-20T07:51:58.962Z,15.35
2024-01-20T07:55:00.771Z,14.85
2024-01-20T07:58:02.577Z,17.10
2024-01-20T08:01:04.557Z,16.27
2024-01-20T08:04:06.851Z,19.45
2024-01-20T08:07:10.107Z,16.52
2024-01-20T08:10:12.276Z,18.60
2024-01-20T08:13:13.999Z,14.30
2024-01-20T08:16:15.713Z,16.23
2024-01-20T08:19:17.532Z,13.82
2024-01-20T08:22:20.911Z,17.55
2024-01-20T08:25:23.047Z,16.92
2024-01-20T08:28:25.007Z,16.90
2024-01-20T08:31:26.778Z,16.33
2024-01-20T08:34:28.535Z,16.52
2024-01-20T08:37:30.333Z,15.45
2024-01-20T08:40:32.012Z,14.10
2024-01-20T08:43:33.714Z,14.55
2024-01-20T08:46:36.453Z,17.05
2024-01-20T08:49:38.247Z,13.50
2024-01-20T08:52:40.873Z,16.20
2024-01-20T08:55:42.720Z,16.35
2024-01-20T08:58:44.387Z,15.25
2024-01-20T09:01:46.396Z,15.13
2024-01-20T09:04:48.086Z,13.52
2024-01-20T09:07:49.767Z,12.73
2024-01-20T09:10:52.249Z,14.18
2024-01-20T09:13:54.033Z,14.10
2024-01-20T09:16:55.738Z,15.82
2024-01-20T09:19:57.603Z,13.27
2024-01-20T09:22:59.410Z,12.50
2024-01-20T09:26:01.100Z,15.05
2024-01-20T09:29:02.848Z,10.90
2024-01-20T09:32:05.013Z,11.38
2024-01-20T09:35:07.911Z,14.02
2024-01-20T09:38:09.957Z,15.43
2024-01-20T09:41:12.638Z,13.05
2024-01-20T09:44:16.447Z,13.27
2024-01-20T09:47:20.754Z,12.77
2024-01-20T09:50:22.577Z,22.10
2024-01-20T09:53:25.468Z,14.73
2024-01-20T09:56:30.447Z,19.08
2024-01-20T09:59:33.347Z,20.02
2024-01-20T10:02:36.640Z,16.20
2024-01-20T10:05:39.125Z,12.13
2024-01-20T10:08:40.955Z,11.63
2024-01-20T10:11:42.609Z,12.45
2024-01-20T10:14:44.425Z,12.20
2024-01-20T10:17:46.473Z,11.13
2024-01-20T10:20:49.126Z,12.10
2024-01-20T10:23:51.049Z,10.80
2024-01-20T10:26:53.707Z,11.73
2024-01-20T10:29:55.379Z,9.95
2024-01-20T10:33:08.606Z,10.52
2024-01-20T10:36:15.238Z,9.05
2024-01-20T10:39:21.116Z,11.30
2024-01-20T10:42:28.484Z,9.88
2024-01-20T10:45:40.059Z,8.88
2024-01-20T10:48:47.929Z,11.68
2024-01-20T10:51:51.020Z,11.45
2024-01-20T10:54:52.842Z,9.73
2024-01-20T10:57:55.649Z,8.55
2024-01-20T11:00:57.521Z,6.82
2024-01-20T11:03:59.372Z,11.57
2024-01-20T11:07:01.699Z,7.28
2024-01-20T11:10:05.082Z,7.97
2024-01-20T11:13:07.849Z,9.13
2024-01-20T11:16:19.008Z,8.63
2024-01-20T11:19:20.758Z,8.70
2024-01-20T11:22:36.786Z,8.77
2024-01-20T11:25:38.549Z,9.43
2024-01-20T11:28:44.378Z,9.90
2024-01-20T11:31:49.987Z,8.65
2024-01-20T11:34:51.845Z,11.23
2024-01-20T11:37:58.647Z,13.73
2024-01-20T11:44:03.242Z,11.30
2024-01-20T11:47:05.267Z,10.63
2024-01-20T11:50:08.034Z,10.45
2024-01-20T11:53:10.290Z,11.05
2024-01-20T11:56:12.057Z,8.90
2024-01-20T11:59:14.659Z,10.50
2024-01-20T12:02:17.364Z,13.40
2024-01-20T12:05:19.863Z,11.68
2024-01-20T12:08:22.201Z,10.18
2024-01-20T12:11:24.588Z,12.75
2024-01-20T12:14:26.369Z,12.88
2024-01-20T12:17:28.119Z,13.07
2024-01-20T12:20:30.095Z,10.77
2024-01-20T12:23:31.759Z,10.75
2024-01-20T12:26:33.399Z,11.98
2024-01-20T12:29:35.160Z,11.52
2024-01-20T12:32:36.884Z,12.07
2024-01-20T12:35:38.661Z,14.25
2024-01-20T12:38:40.443Z,11.68
2024-01-20T12:41:42.308Z,11.23
2024-01-20T12:44:44.053Z,10.98
2024-01-20T12:47:45.761Z,13.82
2024-01-20T12:50:47.486Z,13.45
2024-01-20T12:53:49.215Z,11.13
2024-01-20T12:56:50.864Z,11.65
2024-01-20T12:59:52.536Z,9.82
2024-01-20T13:02:54.318Z,10.95
2024-01-20T13:05:56.061Z,12.82
2024-01-20T13:08:57.740Z,9.90
2024-01-20T13:11:59.394Z,8.65
2024-01-20T13:15:01.442Z,8.60
2024-01-20T13:18:03.615Z,7.20
2024-01-20T13:21:05.533Z,10.40
2024-01-20T13:24:07.343Z,7.15
2024-01-20T13:27:09.112Z,7.53
2024-01-20T13:30:11.367Z,9.15
2024-01-20T13:33:13.469Z,8.48
2024-01-20T13:36:15.276Z,9.50
2024-01-20T13:39:17.088Z,8.48
2024-01-20T13:42:18.870Z,8.18
2024-01-20T13:45:20.628Z,5.40
2024-01-20T13:48:22.442Z,5.88
2024-01-20T13:51:25.878Z,4.65
2024-01-20T13:54:27.663Z,4.25
2024-01-20T13:57:29.594Z,4.85
2024-01-20T14:00:31.421Z,6.22
2024-01-20T14:03:33.523Z,4.28
2024-01-20T14:06:35.651Z,6.53
2024-01-20T14:09:37.423Z,6.05
2024-01-20T14:12:39.218Z,8.05
2024-01-20T14:15:41.236Z,6.28
2024-01-20T14:18:43.078Z,9.10
2024-01-20T14:21:44.812Z,7.70
2024-01-20T14:24:46.700Z,5.80
2024-01-20T14:27:48.415Z,6.15
2024-01-20T14:30:50.607Z,7.85
2024-01-20T14:33:52.523Z,5.55
2024-01-20T14:36:54.431Z,7.28
2024-01-20T14:39:56.081Z,6.18
2024-01-20T14:42:57.729Z,7.47
2024-01-20T14:45:59.423Z,7.20
2024-01-20T14:49:08.421Z,7.10
2024-01-20T14:52:10.547Z,6.70
2024-01-20T14:55:12.300Z,7.00
2024-01-20T14:58:14.021Z,7.15
2024-01-20T15:01:15.744Z,6.25
2024-01-20T15:04:17.681Z,8.15
2024-01-20T15:07:19.516Z,6.63
2024-01-20T15:10:22.453Z,6.60
2024-01-20T15:13:24.145Z,7.88
2024-01-20T15:16:25.823Z,7.75
2024-01-20T15:19:28.284Z,7.97
2024-01-20T15:22:30.065Z,7.75
2024-01-20T15:25:31.815Z,10.43
2024-01-20T15:28:33.726Z,7.55
2024-01-20T15:31:35.413Z,10.20
2024-01-20T15:34:37.182Z,8.57
2024-01-20T15:37:38.906Z,10.20
2024-01-20T15:40:40.980Z,8.70
2024-01-20T15:43:42.780Z,9.77
2024-01-20T15:46:45.503Z,8.73
2024-01-20T15:49:48.501Z,7.45
2024-01-20T15:52:50.617Z,13.00
2024-01-20T15:55:52.368Z,8.98
2024-01-20T15:58:54.001Z,11.05
2024-01-20T16:01:55.718Z,9.05
2024-01-20T16:04:57.421Z,9.02
2024-01-20T16:07:59.145Z,10.95
2024-01-20T16:11:00.933Z,11.65
2024-01-20T16:14:04.246Z,11.15
2024-01-20T16:17:05.940Z,10.20
2024-01-20T16:20:11.334Z,11.82
2024-01-20T16:23:17.777Z,14.30
2024-01-20T16:26:21.953Z,12.98
2024-01-20T16:29:23.733Z,17.52
2024-01-20T16:32:25.603Z,11.13
2024-01-20T16:35:27.338Z,11.55
2024-01-20T16:38:29.041Z,14.27
2024-01-20T16:41:30.752Z,11.25
2024-01-20T16:44:32.462Z,12.40
2024-01-20T16:47:34.274Z,11.68
2024-01-20T16:50:37.005Z,11.90
2024-01-20T16:53:41.633Z,12.18
2024-01-20T16:56:43.684Z,13.57
2024-01-20T16:59:45.479Z,13.68
2024-01-20T17:02:47.179Z,14.32
2024-01-20T17:05:51.474Z,12.50
2024-01-20T17:08:53.128Z,13.75
2024-01-20T17:11:54.887Z,14.77
2024-01-20T17:14:56.622Z,16.05
2024-01-20T17:17:58.331Z,14.05
2024-01-20T17:21:02.377Z,11.82
2024-01-20T17:24:04.306Z,12.60
2024-01-20T17:27:06.178Z,13.48
2024-01-20T17:30:09.271Z,13.40
2024-01-20T17:33:11.613Z,13.65
2024-01-20T17:36:13.530Z,11.63
2024-01-20T17:39:15.355Z,11.23
2024-01-20T17:42:17.239Z,11.45
2024-01-20T17:45:19.015Z,11.93
2024-01-20T17:48:21.153Z,14.30
2024-01-20T17:51:22.968Z,11.57
2024-01-20T17:54:28.432Z,14.40
2024-01-20T17:57:30.851Z,9.75
2024-01-20T18:00:32.752Z,10.18
2024-01-20T18:03:35.284Z,13.57
2024-01-20T18:06:37.749Z,11.20
2024-01-20T18:09:39.608Z,12.50
2024-01-20T18:12:42.698Z,9.25
2024-01-20T18:15:46.182Z,13.85
2024-01-20T18:18:48.180Z,14.93
2024-01-20T18:21:49.993Z,11.70
2024-01-20T18:24:51.840Z,10.98
2024-01-20T18:27:53.578Z,13.02
2024-01-20T18:30:55.367Z,13.13
2024-01-20T18:33:58.836Z,14.15
2024-01-20T18:37:01.297Z,11.77
2024-01-20T18:40:03.336Z,13.70
2024-01-20T18:43:05.176Z,13.75
2024-01-20T18:46:07.690Z,15.55
2024-01-20T18:49:09.443Z,13.93
2024-01-20T18:52:11.280Z,15.38
2024-01-20T18:55:12.989Z,13.77
2024-01-20T18:58:14.860Z,15.75
2024-01-20T19:01:16.681Z,11.38
2024-01-20T19:04:19.262Z,10.90
2024-01-20T19:07:21.548Z,12.35
2024-01-20T19:10:23.364Z,14.13
2024-01-20T19:13:25.560Z,12.15
2024-01-20T19:16:29.076Z,14.13
2024-01-20T19:19:32.544Z,13.10
2024-01-20T19:22:34.400Z,11.55
2024-01-20T19:25:36.196Z,12.00
2024-01-20T19:28:39.444Z,13.18
2024-01-20T19:31:41.089Z,11.52
2024-01-20T19:34:43.071Z,11.93
2024-01-20T19:37:44.940Z,11.60
2024-01-20T19:40:46.875Z,14.13
2024-01-20T19:43:48.663Z,12.50
2024-01-20T19:46:50.378Z,10.68
2024-01-20T19:49:54.521Z,9.77
2024-01-20T19:52:57.860Z,10.75
2024-01-20T19:55:59.745Z,8.70
2024-01-20T19:59:01.432Z,9.60
2024-01-20T20:02:03.364Z,9.27
2024-01-20T20:05:05.388Z,8.75
2024-01-20T20:08:07.343Z,9.63
2024-01-20T20:11:09.051Z,9.60
2024-01-20T20:14:12.806Z,10.07
2024-01-20T20:17:14.563Z,8.52
2024-01-20T20:20:16.292Z,10.63
2024-01-20T20:23:18.014Z,8.75
2024-01-20T20:26:19.681Z,8.93
2024-01-20T20:29:21.485Z,10.05
2024-01-20T20:32:23.857Z,9.20
2024-01-20T20:35:26.018Z,9.40
2024-01-20T20:38:27.767Z,20.92
2024-01-20T20:41:29.560Z,17.80
2024-01-20T20:44:31.230Z,9.52
2024-01-20T20:47:33.666Z,7.53
2024-01-20T20:50:35.385Z,8.90
2024-01-20T20:53:37.060Z,10.80
2024-01-20T20:56:38.745Z,7.40
2024-01-20T20:59:44.053Z,9.68
2024-01-20T21:02:46.053Z,10.27
2024-01-20T21:05:48.129Z,9.20
2024-01-20T21:08:49.816Z,10.32
2024-01-20T21:11:51.480Z,9.48
2024-01-20T21:14:53.339Z,9.45
2024-01-20T21:17:55.094Z,9.48
2024-01-20T21:20:56.807Z,10.55
2024-01-20T21:23:58.569Z,10.05
2024-01-20T21:27:00.268Z,10.43
2024-01-20T21:30:02.083Z,12.70
2024-01-20T21:33:04.676Z,22.70
2024-01-20T21:36:06.636Z,16.33
2024-01-20T21:39:10.746Z,39.05
2024-01-20T21:42:12.811Z,37.90
2024-01-20T21:45:14.580Z,85.32
2024-01-20T21:48:17.376Z,36.20
2024-01-20T21:51:19.286Z,26.88
2024-01-20T21:54:21.066Z,11.88
2024-01-20T21:57:22.845Z,10.13
2024-01-20T22:00:24.967Z,11.60
2024-01-20T22:03:27.017Z,9.65
2024-01-20T22:06:28.891Z,9.50
2024-01-20T22:09:30.654Z,11.70
2024-01-20T22:12:32.932Z,11.85
2024-01-20T22:15:34.670Z,11.88
2024-01-20T22:18:36.453Z,10.63
2024-01-20T22:21:40.186Z,11.98
2024-01-20T22:24:41.985Z,15.68
2024-01-20T22:27:43.754Z,12.05
2024-01-20T22:30:45.515Z,11.02
2024-01-20T22:33:47.274Z,10.63
2024-01-20T22:36:49.239Z,11.07
2024-01-20T22:39:51.028Z,12.38
2024-01-20T22:42:52.853Z,9.88
2024-01-20T22:45:55.174Z,12.75
2024-01-20T22:48:57.034Z,9.40
2024-01-20T22:51:59.218Z,10.48
2024-01-20T22:55:00.943Z,10.05
2024-01-20T22:58:02.848Z,13.68
2024-01-20T23:01:05.541Z,8.50
2024-01-20T23:04:07.466Z,12.10
2024-01-20T23:07:09.243Z,12.10
2024-01-20T23:10:11.294Z,19.13
2024-01-20T23:13:13.304Z,16.67
2024-01-20T23:16:15.000Z,14.02
2024-01-20T23:19:16.831Z,13.73
2024-01-20T23:22:18.520Z,12.13
2024-01-20T23:25:20.224Z,13.13
2024-01-20T23:28:21.893Z,12.32
2024-01-20T23:31:24.091Z,18.17
2024-01-20T23:34:25.887Z,11.77
2024-01-20T23:37:27.606Z,13.88
2024-01-20T23:40:29.287Z,15.68
2024-01-20T23:43:31.000Z,12.50
2024-01-20T23:46:32.652Z,12.77
2024-01-20T23:49:34.427Z,11.85
2024-01-20T23:52:36.503Z,12.95
2024-01-20T23:55:38.234Z,15.32
2024-01-20T23:58:40.064Z,13.15
